createdAt,value
2023-02-26T00:00:38.179Z,96438.66
2023-02-26T00:03:06.365Z,96447.38
2023-02-26T00:05:34.488Z,96454.31
2023-02-26T00:08:06.173Z,96445.81
2023-02-26T00:10:41.994Z,96435.59
2023-02-26T00:13:11.256Z,96441.59
2023-02-26T00:15:41.541Z,96445.00
2023-02-26T00:18:14.965Z,96441.66
2023-02-26T00:20:44.602Z,96459.03
2023-02-26T00:23:14.805Z,96443.56
2023-02-26T00:25:43.434Z,96460.00
2023-02-26T00:28:12.285Z,96436.34
2023-02-26T00:30:42.993Z,96494.53
2023-02-26T00:33:11.782Z,96471.97
2023-02-26T00:35:40.838Z,96460.28
2023-02-26T00:38:11.947Z,96471.34
2023-02-26T00:40:45.060Z,96447.28
2023-02-26T00:43:17.385Z,96441.44
2023-02-26T00:45:52.630Z,96395.25
2023-02-26T00:48:36.630Z,96463.31
2023-02-26T00:51:14.768Z,96458.91
2023-02-26T00:53:48.217Z,96456.31
2023-02-26T00:56:17.022Z,96448.50
2023-02-26T00:58:45.334Z,96438.34
2023-02-26T01:01:15.002Z,96435.66
2023-02-26T01:03:43.671Z,96440.63
2023-02-26T01:06:15.115Z,96461.44
2023-02-26T01:08:49.433Z,96441.66
2023-02-26T01:11:18.048Z,96447.66
2023-02-26T01:13:46.872Z,96428.88
2023-02-26T01:16:23.201Z,96456.97
2023-02-26T01:18:57.564Z,96459.59
2023-02-26T01:21:32.465Z,96426.34
2023-02-26T01:24:03.308Z,96384.44
2023-02-26T01:26:32.233Z,96455.34
2023-02-26T01:29:00.759Z,96446.09
2023-02-26T01:31:39.818Z,96447.03
2023-02-26T01:34:13.740Z,96454.31
2023-02-26T01:36:47.446Z,96463.00
2023-02-26T01:39:25.333Z,96383.91
2023-02-26T01:41:56.828Z,96464.69
2023-02-26T01:44:31.224Z,96320.38
2023-02-26T01:47:07.511Z,96451.59
2023-02-26T01:49:36.122Z,96436.06
2023-02-26T01:52:05.727Z,96436.06
2023-02-26T01:54:35.526Z,96430.81
2023-02-26T01:57:08.888Z,96435.84
2023-02-26T01:59:42.378Z,96452.97
2023-02-26T02:02:14.703Z,96435.56
2023-02-26T02:04:44.050Z,96449.50
2023-02-26T02:07:12.269Z,96454.94
2023-02-26T02:09:40.985Z,96453.50
2023-02-26T02:12:17.318Z,96290.09
2023-02-26T02:14:56.544Z,96467.00
2023-02-26T02:17:38.784Z,96474.88
2023-02-26T02:20:48.376Z,96466.28
2023-02-26T02:23:21.847Z,96459.34
2023-02-26T02:26:15.428Z,96426.91
2023-02-26T02:29:01.863Z,96417.47
2023-02-26T02:31:35.361Z,96472.94
2023-02-26T02:34:11.905Z,96474.56
2023-02-26T02:36:58.426Z,96467.59
2023-02-26T02:39:30.380Z,96467.47
2023-02-26T02:42:04.303Z,96443.19
2023-02-26T02:44:37.341Z,96469.44
2023-02-26T02:47:10.943Z,96494.09
2023-02-26T02:49:46.527Z,96475.44
2023-02-26T02:52:19.162Z,96472.84
2023-02-26T02:54:51.681Z,96496.75
2023-02-26T02:57:24.527Z,96500.28
2023-02-26T02:59:57.753Z,96515.06
2023-02-26T03:02:34.633Z,96514.34
2023-02-26T03:05:02.861Z,96518.72
2023-02-26T03:07:34.555Z,96523.84
2023-02-26T03:10:02.903Z,96530.66
2023-02-26T03:12:33.966Z,96413.66
2023-02-26T03:15:02.993Z,96443.44
2023-02-26T03:17:37.833Z,96530.69
2023-02-26T03:20:14.613Z,96501.75
2023-02-26T03:22:52.977Z,96393.31
2023-02-26T03:25:27.245Z,96549.75
2023-02-26T03:28:02.508Z,96543.88
2023-02-26T03:30:37.339Z,96550.78
2023-02-26T03:33:13.247Z,96532.88
2023-02-26T03:35:51.040Z,96539.78
2023-02-26T03:38:30.977Z,96549.22
2023-02-26T03:41:04.486Z,96556.97
2023-02-26T03:43:37.465Z,96539.09
2023-02-26T03:46:10.864Z,96516.84
2023-02-26T03:48:40.568Z,96545.91
2023-02-26T03:51:12.623Z,96546.63
2023-02-26T03:53:48.801Z,96558.53
2023-02-26T03:56:20.768Z,96545.44
2023-02-26T03:58:49.072Z,96542.88
2023-02-26T04:01:24.322Z,96531.53
2023-02-26T04:03:59.612Z,96535.78
2023-02-26T04:06:28.696Z,96542.63
2023-02-26T04:08:57.633Z,96523.75
2023-02-26T04:11:26.982Z,96556.31
2023-02-26T04:13:55.125Z,96535.09
2023-02-26T04:16:26.165Z,96557.34
2023-02-26T04:18:55.978Z,96563.34
2023-02-26T04:21:24.957Z,96544.59
2023-02-26T04:23:53.142Z,96563.41
2023-02-26T04:26:21.321Z,96552.41
2023-02-26T04:28:49.471Z,96543.88
2023-02-26T04:31:17.829Z,96572.09
2023-02-26T04:33:46.012Z,96566.13
2023-02-26T04:36:15.766Z,96556.78
2023-02-26T04:38:45.257Z,96447.28
2023-02-26T04:41:13.524Z,96583.44
2023-02-26T04:43:41.661Z,96587.00
2023-02-26T04:46:09.860Z,96591.41
2023-02-26T04:48:38.190Z,96588.06
2023-02-26T04:51:06.629Z,96575.31
2023-02-26T04:53:36.247Z,96506.94
2023-02-26T04:56:04.557Z,96595.91
2023-02-26T04:58:32.724Z,96600.28
2023-02-26T05:01:00.915Z,96581.41
2023-02-26T05:03:29.129Z,96507.97
2023-02-26T05:05:57.409Z,96611.47
2023-02-26T05:08:25.552Z,96601.34
2023-02-26T05:10:55.280Z,96611.72
2023-02-26T05:13:23.970Z,96614.19
2023-02-26T05:15:54.189Z,96622.81
2023-02-26T05:18:22.522Z,96637.38
2023-02-26T05:20:54.170Z,96614.06
2023-02-26T05:23:22.655Z,96626.84
2023-02-26T05:25:51.623Z,96626.81
2023-02-26T05:28:21.163Z,96620.84
2023-02-26T05:30:49.329Z,96630.22
2023-02-26T05:33:17.548Z,96629.34
2023-02-26T05:35:45.804Z,96635.22
2023-02-26T05:38:13.945Z,96641.25
2023-02-26T05:40:42.101Z,96634.38
2023-02-26T05:43:10.394Z,96613.84
2023-02-26T05:45:39.947Z,96593.28
2023-02-26T05:48:08.403Z,96488.91
2023-02-26T05:50:36.568Z,96640.44
2023-02-26T05:53:04.829Z,96629.22
2023-02-26T05:55:33.165Z,96636.00
2023-02-26T05:58:01.362Z,96636.00
2023-02-26T06:00:29.567Z,96623.19
2023-02-26T06:03:02.037Z,96578.66
2023-02-26T06:05:30.319Z,96619.72
2023-02-26T06:07:58.513Z,96647.06
2023-02-26T06:10:26.881Z,96644.53
2023-02-26T06:12:55.094Z,96654.94
2023-02-26T06:15:23.399Z,96661.88
2023-02-26T06:17:51.972Z,96667.06
2023-02-26T06:20:21.716Z,96673.97
2023-02-26T06:22:49.880Z,96616.63
2023-02-26T06:25:18.178Z,96667.22
2023-02-26T06:27:46.286Z,96688.63
2023-02-26T06:30:15.002Z,96681.59
2023-02-26T06:32:43.211Z,96691.75
2023-02-26T06:35:12.072Z,96631.91
2023-02-26T06:37:41.758Z,96699.59
2023-02-26T06:40:11.804Z,96700.41
2023-02-26T06:42:40.034Z,96696.09
2023-02-26T06:45:09.046Z,96716.63
2023-02-26T06:47:37.343Z,96698.50
2023-02-26T06:50:06.103Z,96700.19
2023-02-26T06:52:35.370Z,96710.53
2023-02-26T06:55:05.395Z,96583.81
2023-02-26T06:57:33.685Z,96714.75
2023-02-26T07:00:02.583Z,96718.94
2023-02-26T07:02:30.954Z,96719.03
2023-02-26T07:04:59.054Z,96560.78
2023-02-26T07:07:27.273Z,96716.53
2023-02-26T07:09:55.597Z,96703.63
2023-02-26T07:12:25.236Z,96700.97
2023-02-26T07:14:53.502Z,96731.81
2023-02-26T07:17:21.826Z,96704.25
2023-02-26T07:19:51.167Z,96724.66
2023-02-26T07:22:21.845Z,96729.72
2023-02-26T07:24:51.507Z,96567.22
2023-02-26T07:27:20.041Z,96666.28
2023-02-26T07:29:49.799Z,96716.78
2023-02-26T07:32:18.012Z,96698.72
2023-02-26T07:34:46.338Z,96717.69
2023-02-26T07:37:14.740Z,96742.56
2023-02-26T07:39:43.112Z,96747.25
2023-02-26T07:42:11.442Z,96758.34
2023-02-26T07:44:39.965Z,96755.72
2023-02-26T07:47:10.984Z,96696.69
2023-02-26T07:49:39.367Z,96763.19
2023-02-26T07:52:08.348Z,96763.19
2023-02-26T07:54:37.202Z,96761.28
2023-02-26T07:57:06.352Z,96761.09
2023-02-26T07:59:34.765Z,96760.81
2023-02-26T08:02:03.320Z,96757.38
2023-02-26T08:04:33.294Z,96758.66
2023-02-26T08:07:02.521Z,96779.19
2023-02-26T08:09:31.579Z,96772.69
2023-02-26T08:11:59.892Z,96771.88
2023-02-26T08:14:28.148Z,96713.41
2023-02-26T08:16:56.281Z,96766.72
2023-02-26T08:19:24.476Z,96772.84
2023-02-26T08:21:55.495Z,96778.97
2023-02-26T08:24:23.884Z,96773.25
2023-02-26T08:26:52.145Z,96773.34
2023-02-26T08:29:20.778Z,96776.88
2023-02-26T08:31:49.052Z,96789.56
2023-02-26T08:34:17.255Z,96783.66
2023-02-26T08:36:45.453Z,96821.53
2023-02-26T08:39:15.181Z,96823.38
2023-02-26T08:41:43.372Z,96791.91
2023-02-26T08:44:11.802Z,96812.34
2023-02-26T08:46:40.074Z,96805.31
2023-02-26T08:49:08.301Z,96837.28
2023-02-26T08:51:36.492Z,96842.50
2023-02-26T08:54:04.921Z,96820.97
2023-02-26T08:56:34.614Z,96827.09
2023-02-26T08:59:02.777Z,96844.50
2023-02-26T09:01:30.961Z,96871.09
2023-02-26T09:03:59.266Z,96883.16
2023-02-26T09:06:27.818Z,96787.66
2023-02-26T09:08:56.161Z,96876.94
2023-02-26T09:11:24.580Z,96885.38
2023-02-26T09:13:54.408Z,96892.19
2023-02-26T09:16:22.733Z,96879.91
2023-02-26T09:18:51.109Z,96879.03
2023-02-26T09:21:19.371Z,96882.50
2023-02-26T09:23:47.466Z,96880.34
2023-02-26T09:26:16.152Z,96756.91
2023-02-26T09:28:44.336Z,96884.41
2023-02-26T09:31:14.009Z,96863.84
2023-02-26T09:33:42.272Z,96888.47
2023-02-26T09:36:10.592Z,96851.00
2023-02-26T09:38:38.786Z,96896.63
2023-02-26T09:41:10.465Z,96897.41
2023-02-26T09:43:57.135Z,96896.34
2023-02-26T09:46:35.266Z,96898.13
2023-02-26T09:49:24.220Z,96900.75
2023-02-26T09:51:56.777Z,96898.06
2023-02-26T09:54:29.225Z,96898.78
2023-02-26T09:57:01.326Z,96909.78
2023-02-26T09:59:33.815Z,96872.00
2023-02-26T10:02:09.116Z,96904.28
2023-02-26T10:04:51.672Z,96907.63
2023-02-26T10:07:31.334Z,96855.56
2023-02-26T10:10:10.336Z,96902.38
2023-02-26T10:12:41.955Z,96906.69
2023-02-26T10:15:14.609Z,96905.06
2023-02-26T10:17:56.064Z,96866.38
2023-02-26T10:20:30.962Z,96885.28
2023-02-26T10:23:09.944Z,96912.47
2023-02-26T10:25:41.604Z,96905.53
2023-02-26T10:28:35.911Z,96919.16
2023-02-26T10:31:10.978Z,96920.19
2023-02-26T10:33:50.337Z,96898.91
2023-02-26T10:36:25.676Z,96914.28
2023-02-26T10:39:00.117Z,96785.72
2023-02-26T10:41:32.274Z,96909.78
2023-02-26T10:44:10.189Z,96913.97
2023-02-26T10:46:47.377Z,96921.97
2023-02-26T10:49:36.918Z,96865.38
2023-02-26T10:52:14.443Z,96940.75
2023-02-26T10:54:52.376Z,96934.06
2023-02-26T10:57:25.586Z,96912.16
2023-02-26T10:59:54.019Z,96944.72
2023-02-26T11:02:36.236Z,96948.94
2023-02-26T11:05:15.018Z,96938.47
2023-02-26T11:07:43.968Z,96945.47
2023-02-26T11:10:17.950Z,96928.91
2023-02-26T11:12:47.349Z,96925.47
2023-02-26T11:15:18.902Z,96925.56
2023-02-26T11:17:49.530Z,96927.22
2023-02-26T11:20:30.944Z,96940.19
2023-02-26T11:23:01.182Z,96926.38
2023-02-26T11:25:32.356Z,96936.59
2023-02-26T11:28:04.563Z,96877.31
2023-02-26T11:30:36.850Z,96943.41
2023-02-26T11:33:18.925Z,96819.00
2023-02-26T11:35:49.834Z,96914.06
2023-02-26T11:38:23.367Z,96930.41
2023-02-26T11:40:56.190Z,96908.13
2023-02-26T11:43:28.027Z,96928.50
2023-02-26T11:46:02.258Z,96934.44
2023-02-26T11:48:47.567Z,96931.09
2023-02-26T11:51:22.882Z,96933.81
2023-02-26T11:53:54.017Z,96918.66
2023-02-26T11:56:28.162Z,96942.78
2023-02-26T11:58:57.026Z,96940.22
2023-02-26T12:01:30.593Z,96932.44
2023-02-26T12:04:03.959Z,96877.69
2023-02-26T12:06:34.033Z,96946.41
2023-02-26T12:09:02.428Z,96914.66
2023-02-26T12:11:51.814Z,96936.94
2023-02-26T12:14:39.428Z,96937.72
2023-02-26T12:17:32.221Z,96950.81
2023-02-26T12:20:17.754Z,96940.59
2023-02-26T12:22:56.224Z,96949.97
2023-02-26T12:25:51.627Z,96964.81
2023-02-26T12:28:46.297Z,96838.13
2023-02-26T12:31:31.199Z,96962.22
2023-02-26T12:34:13.807Z,96970.06
2023-02-26T12:36:57.753Z,96980.91
2023-02-26T12:39:42.265Z,96951.78
2023-02-26T12:42:23.650Z,96969.59
2023-02-26T12:45:19.066Z,96986.56
2023-02-26T12:48:01.541Z,96965.88
2023-02-26T12:50:41.196Z,96988.09
2023-02-26T12:53:26.973Z,96816.75
2023-02-26T12:56:08.576Z,96930.56
2023-02-26T12:58:52.422Z,96994.88
2023-02-26T13:01:59.511Z,96997.50
2023-02-26T13:05:01.897Z,97001.00
2023-02-26T13:07:49.924Z,97012.13
2023-02-26T13:10:28.284Z,97000.06
2023-02-26T13:13:11.706Z,97019.72
2023-02-26T13:15:52.497Z,97014.50
2023-02-26T13:18:29.026Z,97011.00
2023-02-26T13:21:00.744Z,97016.97
2023-02-26T13:23:37.367Z,96968.28
2023-02-26T13:26:10.400Z,96859.44
2023-02-26T13:28:44.727Z,96959.72
2023-02-26T13:31:18.147Z,97010.38
2023-02-26T13:33:47.628Z,97031.88
2023-02-26T13:36:18.218Z,97024.19
2023-02-26T13:38:57.232Z,97015.84
2023-02-26T13:41:33.950Z,97035.59
2023-02-26T13:44:27.691Z,97030.44
2023-02-26T13:47:49.403Z,97038.16
2023-02-26T13:50:29.068Z,97043.28
2023-02-26T13:53:03.568Z,97045.91
2023-02-26T13:55:45.539Z,96982.44
2023-02-26T13:58:31.691Z,97039.88
2023-02-26T14:01:08.614Z,97038.97
2023-02-26T14:03:37.821Z,97040.75
2023-02-26T14:06:23.520Z,96995.53
2023-02-26T14:08:55.658Z,97052.22
2023-02-26T14:11:46.239Z,97054.88
2023-02-26T14:14:20.458Z,96923.00
2023-02-26T14:16:55.422Z,96871.59
2023-02-26T14:19:29.043Z,97048.28
2023-02-26T14:21:59.138Z,97046.69
2023-02-26T14:24:36.952Z,97075.97
2023-02-26T14:27:23.072Z,97064.72
2023-02-26T14:30:06.577Z,97074.25
2023-02-26T14:32:47.273Z,97062.91
2023-02-26T14:35:20.494Z,97058.69
2023-02-26T14:37:58.471Z,97046.00
2023-02-26T14:40:27.911Z,97033.16
2023-02-26T14:42:59.337Z,97081.19
2023-02-26T14:45:33.371Z,97079.47
2023-02-26T14:48:06.350Z,97054.53
2023-02-26T14:50:43.010Z,97080.34
2023-02-26T14:53:42.169Z,97082.88
2023-02-26T14:56:17.555Z,97095.91
2023-02-26T14:59:17.537Z,97098.53
2023-02-26T15:01:55.867Z,97099.44
2023-02-26T15:05:08.170Z,97101.16
2023-02-26T15:07:54.952Z,97013.75
2023-02-26T15:10:36.028Z,97069.59
2023-02-26T15:13:32.731Z,97114.16
2023-02-26T15:16:12.168Z,97115.03
2023-02-26T15:18:57.762Z,97080.78
2023-02-26T15:21:34.358Z,97018.25
2023-02-26T15:24:07.896Z,97133.25
2023-02-26T15:26:39.385Z,97128.94
2023-02-26T15:29:11.744Z,97125.66
2023-02-26T15:31:44.166Z,97136.78
2023-02-26T15:34:13.635Z,97136.81
2023-02-26T15:36:44.628Z,97093.88
2023-02-26T15:39:17.675Z,97118.84
2023-02-26T15:41:49.071Z,97152.34
2023-02-26T15:44:22.050Z,97127.50
2023-02-26T15:46:55.746Z,97141.38
2023-02-26T15:49:29.605Z,97165.50
2023-02-26T15:51:59.612Z,97151.75
2023-02-26T15:54:38.647Z,97149.13
2023-02-26T15:57:08.833Z,97156.88
2023-02-26T15:59:42.413Z,97162.03
2023-02-26T16:02:14.187Z,97176.66
2023-02-26T16:04:43.036Z,97188.00
2023-02-26T16:07:12.570Z,97183.66
2023-02-26T16:09:46.294Z,97189.72
2023-02-26T16:12:17.585Z,97149.31
2023-02-26T16:14:48.673Z,97202.69
2023-02-26T16:17:25.012Z,97194.94
2023-02-26T16:19:55.107Z,97178.66
2023-02-26T16:22:26.912Z,97183.00
2023-02-26T16:25:02.441Z,97219.16
2023-02-26T16:27:32.462Z,97217.47
2023-02-26T16:30:03.406Z,97223.56
2023-02-26T16:32:35.452Z,97218.38
2023-02-26T16:35:13.841Z,97202.09
2023-02-26T16:37:45.966Z,97260.72
2023-02-26T16:40:20.853Z,97240.91
2023-02-26T16:42:55.780Z,97242.72
2023-02-26T16:45:49.353Z,97223.78
2023-02-26T16:48:20.676Z,97256.56
2023-02-26T16:50:55.561Z,97260.91
2023-02-26T16:53:26.721Z,97241.94
2023-02-26T16:55:58.059Z,97262.66
2023-02-26T16:58:26.984Z,97239.44
2023-02-26T17:01:05.483Z,97243.78
2023-02-26T17:03:34.104Z,97277.31
2023-02-26T17:06:05.248Z,97244.66
2023-02-26T17:08:36.856Z,97286.81
2023-02-26T17:11:10.365Z,97290.34
2023-02-26T17:13:38.822Z,97296.31
2023-02-26T17:16:10.316Z,97304.09
2023-02-26T17:18:38.706Z,97303.22
2023-02-26T17:21:08.195Z,97290.34
2023-02-26T17:23:39.826Z,97306.69
2023-02-26T17:26:09.676Z,97267.13
2023-02-26T17:28:41.006Z,97316.22
2023-02-26T17:31:09.257Z,97288.69
2023-02-26T17:33:39.555Z,97302.44
2023-02-26T17:36:08.698Z,97324.00
2023-02-26T17:38:36.785Z,97331.75
2023-02-26T17:41:05.246Z,97330.88
2023-02-26T17:43:34.905Z,97327.44
2023-02-26T17:46:03.149Z,97311.09
2023-02-26T17:48:31.674Z,97336.97
2023-02-26T17:51:00.090Z,97335.19
2023-02-26T17:53:29.629Z,97336.91
2023-02-26T17:55:57.961Z,97329.19
2023-02-26T17:58:30.316Z,97320.56
2023-02-26T18:00:59.958Z,97339.53
2023-02-26T18:03:28.105Z,97346.44
2023-02-26T18:05:57.973Z,97350.75
2023-02-26T18:08:29.168Z,97332.63
2023-02-26T18:10:58.711Z,97349.88
2023-02-26T18:13:27.323Z,97352.47
2023-02-26T18:15:56.874Z,97357.66
2023-02-26T18:18:27.499Z,97369.72
2023-02-26T18:20:56.227Z,97361.97
2023-02-26T18:23:25.720Z,97350.78
2023-02-26T18:25:56.611Z,97351.63
2023-02-26T18:28:27.540Z,97351.63
2023-02-26T18:30:57.048Z,97374.91
2023-02-26T18:33:27.630Z,97355.97
2023-02-26T18:36:00.293Z,97376.66
2023-02-26T18:38:29.925Z,97358.53
2023-02-26T18:40:58.900Z,97301.69
2023-02-26T18:43:27.988Z,97386.13
2023-02-26T18:45:57.481Z,97380.97
2023-02-26T18:48:27.356Z,97378.38
2023-02-26T18:50:57.302Z,97356.84
2023-02-26T18:53:27.081Z,97351.66
2023-02-26T18:55:58.308Z,97368.91
2023-02-26T18:58:28.162Z,97392.16
2023-02-26T19:01:07.395Z,97387.00
2023-02-26T19:03:37.332Z,97398.22
2023-02-26T19:06:12.090Z,97393.91
2023-02-26T19:09:12.297Z,97395.63
2023-02-26T19:11:47.611Z,97359.44
2023-02-26T19:14:22.218Z,97395.63
2023-02-26T19:16:50.778Z,97402.53
2023-02-26T19:19:22.672Z,97394.78
2023-02-26T19:21:51.732Z,97389.59
2023-02-26T19:24:20.290Z,97408.56
2023-02-26T19:26:49.248Z,97411.16
2023-02-26T19:29:20.282Z,97207.81
2023-02-26T19:31:49.169Z,97417.19
2023-02-26T19:34:17.584Z,97393.91
2023-02-26T19:36:48.507Z,97421.50
2023-02-26T19:39:18.864Z,97419.75
2023-02-26T19:42:05.629Z,97401.63
2023-02-26T19:44:34.255Z,97419.75
2023-02-26T19:47:03.163Z,97414.59
2023-02-26T19:49:31.670Z,97419.75
2023-02-26T19:52:08.982Z,97440.41
2023-02-26T19:54:37.529Z,97442.16
2023-02-26T19:57:05.734Z,97424.91
2023-02-26T19:59:34.118Z,97455.09
2023-02-26T20:02:02.360Z,97453.38
2023-02-26T20:04:30.735Z,97461.13
2023-02-26T20:06:59.402Z,97458.50
2023-02-26T20:09:29.222Z,97456.81
2023-02-26T20:11:57.674Z,97462.84
2023-02-26T20:14:26.361Z,97469.75
2023-02-26T20:16:54.813Z,97453.34
2023-02-26T20:19:24.091Z,97455.09
2023-02-26T20:21:56.077Z,97483.53
2023-02-26T20:24:24.356Z,97481.78
2023-02-26T20:26:54.451Z,97493.84
2023-02-26T20:29:23.808Z,97494.72
2023-02-26T20:31:52.239Z,97494.69
2023-02-26T20:34:22.223Z,97365.31
2023-02-26T20:36:50.903Z,97411.84
2023-02-26T20:39:21.126Z,97510.22
2023-02-26T20:41:50.551Z,97505.09
2023-02-26T20:44:20.603Z,97520.59
2023-02-26T20:46:50.104Z,97517.13
2023-02-26T20:49:18.522Z,97510.19
2023-02-26T20:51:46.905Z,97505.06
2023-02-26T20:54:17.881Z,97457.56
2023-02-26T20:56:47.093Z,97532.66
2023-02-26T20:59:15.709Z,97388.50
2023-02-26T21:01:46.886Z,97536.84
2023-02-26T21:04:15.852Z,97515.31
2023-02-26T21:06:44.559Z,97547.25
2023-02-26T21:09:12.902Z,97553.22
2023-02-26T21:11:41.895Z,97559.22
2023-02-26T21:14:11.159Z,97559.19
2023-02-26T21:16:41.589Z,97507.31
2023-02-26T21:19:11.323Z,97563.50
2023-02-26T21:21:39.713Z,97554.06
2023-02-26T21:24:08.731Z,97553.13
2023-02-26T21:26:38.191Z,97565.19
2023-02-26T21:29:06.428Z,97567.81
2023-02-26T21:31:35.481Z,97573.00
2023-02-26T21:34:23.532Z,97562.63
2023-02-26T21:36:53.719Z,97554.03
2023-02-26T21:39:21.987Z,97549.75
2023-02-26T21:41:50.282Z,97557.50
2023-02-26T21:44:18.808Z,97563.53
2023-02-26T21:46:47.139Z,97517.75
2023-02-26T21:49:15.578Z,97566.97
2023-02-26T21:51:43.842Z,97578.19
2023-02-26T21:54:13.529Z,97581.63
2023-02-26T21:56:41.923Z,97554.88
2023-02-26T21:59:10.288Z,97551.41
2023-02-26T22:01:38.504Z,97570.47
2023-02-26T22:04:13.385Z,97577.31
2023-02-26T22:06:41.595Z,97590.19
2023-02-26T22:09:09.737Z,97570.28
2023-02-26T22:11:39.559Z,97564.19
2023-02-26T22:14:07.971Z,97572.00
2023-02-26T22:16:36.260Z,97552.19
2023-02-26T22:19:04.722Z,97576.34
2023-02-26T22:21:32.924Z,97605.69
2023-02-26T22:24:03.127Z,97598.81
2023-02-26T22:26:32.093Z,97605.66
2023-02-26T22:29:01.796Z,97591.00
2023-02-26T22:31:32.090Z,97559.06
2023-02-26T22:34:00.854Z,97541.78
2023-02-26T22:36:31.470Z,97614.34
2023-02-26T22:39:00.144Z,97564.19
2023-02-26T22:41:28.518Z,97614.25
2023-02-26T22:43:56.978Z,97628.88
2023-02-26T22:46:28.666Z,97619.38
2023-02-26T22:48:57.631Z,97627.13
2023-02-26T22:51:26.194Z,97556.91
2023-02-26T22:53:54.612Z,97631.28
2023-02-26T22:56:22.903Z,97638.16
2023-02-26T22:58:51.220Z,97636.44
2023-02-26T23:01:20.328Z,97542.28
2023-02-26T23:03:50.049Z,97643.38
2023-02-26T23:06:18.285Z,97639.94
2023-02-26T23:08:46.460Z,97617.41
2023-02-26T23:11:14.794Z,97640.75
2023-02-26T23:13:42.988Z,97641.69
2023-02-26T23:16:12.339Z,97644.25
2023-02-26T23:18:42.030Z,97646.78
2023-02-26T23:21:11.881Z,97657.13
2023-02-26T23:23:40.261Z,97656.25
2023-02-26T23:26:08.915Z,97657.91
2023-02-26T23:28:37.467Z,97659.59
2023-02-26T23:31:06.439Z,97637.16
2023-02-26T23:33:34.801Z,97663.13
2023-02-26T23:36:03.002Z,97667.44
2023-02-26T23:38:32.631Z,97502.25
2023-02-26T23:41:00.803Z,97675.88
2023-02-26T23:43:29.031Z,97677.59
2023-02-26T23:45:57.182Z,97680.19
2023-02-26T23:48:27.476Z,97680.19
2023-02-26T23:50:56.676Z,97634.31
2023-02-26T23:53:24.859Z,97688.78
2023-02-26T23:55:58.504Z,97667.94
2023-02-26T23:58:27.468Z,97647.06
